createdAt,value
2023-05-18T00:00:31.095Z,9.20
2023-05-18T00:02:59.299Z,9.20
2023-05-18T00:05:34.403Z,9.10
2023-05-18T00:08:02.993Z,9.10
2023-05-18T00:10:31.244Z,9.20
2023-05-18T00:12:59.440Z,9.20
2023-05-18T00:15:27.877Z,9.30
2023-05-18T00:17:57.113Z,9.20
2023-05-18T00:20:26.592Z,9.20
2023-05-18T00:22:56.197Z,9.20
2023-05-18T00:25:24.575Z,9.10
2023-05-18T00:27:52.976Z,9.00
2023-05-18T00:30:21.499Z,9.00
2023-05-18T00:32:49.693Z,9.00
2023-05-18T00:35:17.893Z,9.00
2023-05-18T00:37:46.073Z,9.00
2023-05-18T00:40:15.748Z,9.00
2023-05-18T00:42:43.920Z,8.90
2023-05-18T00:45:12.537Z,8.90
2023-05-18T00:47:40.738Z,8.90
2023-05-18T00:50:09.709Z,8.90
2023-05-18T00:52:38.523Z,8.80
2023-05-18T00:55:08.277Z,8.80
2023-05-18T00:57:38.343Z,8.70
2023-05-18T01:00:10.773Z,8.70
2023-05-18T01:02:42.679Z,8.70
2023-05-18T01:05:12.282Z,8.60
2023-05-18T01:07:42.519Z,8.60
2023-05-18T01:10:12.912Z,8.50
2023-05-18T01:12:49.326Z,8.50
2023-05-18T01:15:19.810Z,8.40
2023-05-18T01:18:00.798Z,8.40
2023-05-18T01:20:37.869Z,8.40
2023-05-18T01:23:46.861Z,8.40
2023-05-18T01:26:17.940Z,8.20
2023-05-18T01:28:47.530Z,8.20
2023-05-18T01:31:16.457Z,8.20
2023-05-18T01:33:45.015Z,8.20
2023-05-18T01:36:13.396Z,8.10
2023-05-18T01:38:44.167Z,8.10
2023-05-18T01:41:21.393Z,8.00
2023-05-18T01:43:56.101Z,8.00
2023-05-18T01:46:36.042Z,8.00
2023-05-18T01:49:09.449Z,7.90
2023-05-18T01:51:43.370Z,8.00
2023-05-18T01:54:12.647Z,8.00
2023-05-18T01:56:43.516Z,7.90
2023-05-18T01:59:12.093Z,7.90
2023-05-18T02:01:40.339Z,7.90
2023-05-18T02:04:10.531Z,7.90
2023-05-18T02:06:39.187Z,7.90
2023-05-18T02:09:07.763Z,7.80
2023-05-18T02:11:35.966Z,7.80
2023-05-18T02:14:05.528Z,7.70
2023-05-18T02:16:33.771Z,7.70
2023-05-18T02:19:02.013Z,7.60
2023-05-18T02:21:30.535Z,7.60
2023-05-18T02:23:58.872Z,7.70
2023-05-18T02:26:27.426Z,7.60
2023-05-18T02:28:55.636Z,7.50
2023-05-18T02:31:25.253Z,7.40
2023-05-18T02:33:54.173Z,7.40
2023-05-18T02:36:22.617Z,7.50
2023-05-18T02:38:50.793Z,7.40
2023-05-18T02:41:18.961Z,7.40
2023-05-18T02:43:47.114Z,7.30
2023-05-18T02:46:15.360Z,7.20
2023-05-18T02:48:45.760Z,7.30
2023-05-18T02:51:14.041Z,7.30
2023-05-18T02:53:44.238Z,7.30
2023-05-18T02:56:13.352Z,7.30
2023-05-18T02:58:43.679Z,7.20
2023-05-18T03:01:13.321Z,7.30
2023-05-18T03:03:43.366Z,7.20
2023-05-18T03:06:14.015Z,7.20
2023-05-18T03:08:54.681Z,7.10
2023-05-18T03:11:23.101Z,7.20
2023-05-18T03:13:51.465Z,7.30
2023-05-18T03:16:19.771Z,7.10
2023-05-18T03:18:47.938Z,7.20
2023-05-18T03:21:17.515Z,7.10
2023-05-18T03:23:45.698Z,7.20
2023-05-18T03:26:13.880Z,7.20
2023-05-18T03:28:42.025Z,7.10
2023-05-18T03:31:10.277Z,7.10
2023-05-18T03:33:38.449Z,7.30
2023-05-18T03:36:07.170Z,7.30
2023-05-18T03:38:36.716Z,7.30
2023-05-18T03:41:05.007Z,7.20
2023-05-18T03:43:33.239Z,7.30
2023-05-18T03:46:01.407Z,7.30
2023-05-18T03:48:29.556Z,7.30
2023-05-18T03:50:57.873Z,7.30
2023-05-18T03:53:26.291Z,7.30
2023-05-18T03:55:56.931Z,7.40
2023-05-18T03:58:25.089Z,7.40
2023-05-18T04:00:53.310Z,7.40
2023-05-18T04:03:21.714Z,7.40
2023-05-18T04:05:50.008Z,7.40
2023-05-18T04:08:18.427Z,7.40
2023-05-18T04:10:46.873Z,7.40
2023-05-18T04:13:16.393Z,7.50
2023-05-18T04:15:44.617Z,7.40
2023-05-18T04:18:14.271Z,7.40
2023-05-18T04:20:46.034Z,7.40
2023-05-18T04:23:14.310Z,7.40
2023-05-18T04:25:42.561Z,7.40
2023-05-18T04:28:10.981Z,7.40
2023-05-18T04:30:40.509Z,7.50
2023-05-18T04:33:08.879Z,7.50
2023-05-18T04:35:37.529Z,7.60
2023-05-18T04:38:05.980Z,7.60
2023-05-18T04:40:34.496Z,7.60
2023-05-18T04:43:03.477Z,7.60
2023-05-18T04:45:32.073Z,7.60
2023-05-18T04:48:02.955Z,7.70
2023-05-18T04:50:31.123Z,7.70
2023-05-18T04:53:02.076Z,7.80
2023-05-18T04:55:31.348Z,7.90
2023-05-18T04:58:00.553Z,7.90
2023-05-18T05:00:30.302Z,8.00
2023-05-18T05:02:59.944Z,8.10
2023-05-18T05:05:30.793Z,8.10
2023-05-18T05:07:59.471Z,8.10
2023-05-18T05:10:29.149Z,8.10
2023-05-18T05:12:57.324Z,8.20
2023-05-18T05:15:25.677Z,8.30
2023-05-18T05:17:53.856Z,8.30
2023-05-18T05:20:22.233Z,8.40
2023-05-18T05:22:51.923Z,8.40
2023-05-18T05:25:20.118Z,8.40
2023-05-18T05:27:48.271Z,8.50
2023-05-18T05:30:16.442Z,8.60
2023-05-18T05:32:44.620Z,8.60
2023-05-18T05:35:12.830Z,8.60
2023-05-18T05:37:40.997Z,8.80
2023-05-18T05:40:11.811Z,8.90
2023-05-18T05:42:39.998Z,8.90
2023-05-18T05:45:09.377Z,9.00
2023-05-18T05:47:37.615Z,9.00
2023-05-18T05:50:06.537Z,9.10
2023-05-18T05:52:34.701Z,9.10
2023-05-18T05:55:02.838Z,9.20
2023-05-18T05:57:32.379Z,9.30
2023-05-18T06:00:00.525Z,9.30
2023-05-18T06:02:28.802Z,9.50
2023-05-18T06:04:57.048Z,9.50
2023-05-18T06:07:25.244Z,9.60
2023-05-18T06:09:53.403Z,9.70
2023-05-18T06:12:21.577Z,9.60
2023-05-18T06:14:52.871Z,9.60
2023-05-18T06:17:21.092Z,9.60
2023-05-18T06:19:49.234Z,9.70
2023-05-18T06:22:17.372Z,9.70
2023-05-18T06:24:46.231Z,9.80
2023-05-18T06:27:14.380Z,9.70
2023-05-18T06:29:42.510Z,10.00
2023-05-18T06:32:12.948Z,10.10
2023-05-18T06:34:41.220Z,10.20
2023-05-18T06:37:09.407Z,10.30
2023-05-18T06:39:37.583Z,10.20
2023-05-18T06:42:06.215Z,10.30
2023-05-18T06:44:35.280Z,10.50
2023-05-18T06:47:03.471Z,10.60
2023-05-18T06:49:32.996Z,10.70
2023-05-18T06:52:01.136Z,10.70
2023-05-18T06:54:29.514Z,10.40
2023-05-18T06:56:57.771Z,10.40
2023-05-18T06:59:26.002Z,10.50
2023-05-18T07:01:54.276Z,10.60
2023-05-18T07:04:22.760Z,10.70
2023-05-18T07:06:53.687Z,10.60
2023-05-18T07:09:22.438Z,10.70
2023-05-18T07:11:50.594Z,10.80
2023-05-18T07:14:18.759Z,10.90
2023-05-18T07:16:47.536Z,10.80
2023-05-18T07:19:15.897Z,10.70
2023-05-18T07:21:44.151Z,10.60
2023-05-18T07:24:13.673Z,10.60
2023-05-18T07:26:41.828Z,10.70
2023-05-18T07:29:10.001Z,10.80
2023-05-18T07:31:40.578Z,10.80
2023-05-18T07:34:08.787Z,10.70
2023-05-18T07:36:36.949Z,10.70
2023-05-18T07:39:05.535Z,10.50
2023-05-18T07:41:35.120Z,10.40
2023-05-18T07:44:03.285Z,10.50
2023-05-18T07:46:31.576Z,10.60
2023-05-18T07:49:00.664Z,10.50
2023-05-18T07:51:29.771Z,10.50
2023-05-18T07:53:57.917Z,10.70
2023-05-18T07:56:26.318Z,10.70
2023-05-18T07:58:55.923Z,10.70
2023-05-18T08:01:27.479Z,10.40
2023-05-18T08:03:55.723Z,10.70
2023-05-18T08:06:24.056Z,10.80
2023-05-18T08:08:52.279Z,11.00
2023-05-18T08:11:21.866Z,10.80
2023-05-18T08:13:50.171Z,11.00
2023-05-18T08:16:19.763Z,11.10
2023-05-18T08:18:48.017Z,11.20
2023-05-18T08:21:16.686Z,11.20
2023-05-18T08:23:44.942Z,11.50
2023-05-18T08:26:14.167Z,11.60
2023-05-18T08:28:42.564Z,11.60
2023-05-18T08:31:12.412Z,11.50
2023-05-18T08:33:42.125Z,11.70
2023-05-18T08:36:11.145Z,11.70
2023-05-18T08:38:39.367Z,11.80
2023-05-18T08:41:16.329Z,12.00
2023-05-18T08:43:49.894Z,11.90
2023-05-18T08:46:25.793Z,12.00
2023-05-18T08:48:57.417Z,12.00
2023-05-18T08:51:28.253Z,12.20
2023-05-18T08:53:56.863Z,12.30
2023-05-18T08:56:26.609Z,12.40
2023-05-18T08:58:57.334Z,12.50
2023-05-18T09:01:29.243Z,12.30
2023-05-18T09:04:01.785Z,12.50
2023-05-18T09:06:30.052Z,12.60
2023-05-18T09:08:58.843Z,12.90
2023-05-18T09:11:28.311Z,13.10
2023-05-18T09:13:56.692Z,13.30
2023-05-18T09:16:24.996Z,13.30
2023-05-18T09:18:53.763Z,13.30
2023-05-18T09:21:23.405Z,13.50
2023-05-18T09:23:51.928Z,13.50
2023-05-18T09:26:21.754Z,13.60
2023-05-18T09:28:53.931Z,13.30
2023-05-18T09:31:24.601Z,13.30
2023-05-18T09:33:53.782Z,13.50
2023-05-18T09:36:29.229Z,13.20
2023-05-18T09:38:58.650Z,13.20
2023-05-18T09:41:28.063Z,13.30
2023-05-18T09:43:56.338Z,13.40
2023-05-18T09:46:25.814Z,13.30
2023-05-18T09:48:55.378Z,13.40
2023-05-18T09:51:25.534Z,13.30
2023-05-18T09:53:57.091Z,13.40
2023-05-18T09:56:27.036Z,13.50
2023-05-18T09:58:55.618Z,13.60
2023-05-18T10:01:24.277Z,13.70
2023-05-18T10:03:53.430Z,13.80
2023-05-18T10:06:27.589Z,13.80
2023-05-18T10:08:58.947Z,13.80
2023-05-18T10:11:27.679Z,13.90
2023-05-18T10:13:57.028Z,13.90
2023-05-18T10:16:25.700Z,14.00
2023-05-18T10:18:56.159Z,14.00
2023-05-18T10:21:28.350Z,14.00
2023-05-18T10:23:59.060Z,14.10
2023-05-18T10:26:29.600Z,14.10
2023-05-18T10:29:00.147Z,14.20
2023-05-18T10:31:31.392Z,14.20
2023-05-18T10:34:01.216Z,14.10
2023-05-18T10:36:32.787Z,14.30
2023-05-18T10:39:04.004Z,14.30
2023-05-18T10:41:33.355Z,14.40
2023-05-18T10:44:04.132Z,14.20
2023-05-18T10:46:33.317Z,14.30
2023-05-18T10:49:05.066Z,14.00
2023-05-18T10:51:33.578Z,14.00
2023-05-18T10:54:13.325Z,14.30
2023-05-18T10:56:44.880Z,14.50
2023-05-18T10:59:15.064Z,14.40
2023-05-18T11:01:44.716Z,14.10
2023-05-18T11:04:13.392Z,14.30
2023-05-18T11:06:41.724Z,14.40
2023-05-18T11:09:24.789Z,14.40
2023-05-18T11:11:54.103Z,14.40
2023-05-18T11:14:31.480Z,14.40
2023-05-18T11:17:20.194Z,14.70
2023-05-18T11:20:17.365Z,14.90
2023-05-18T11:22:51.406Z,14.80
2023-05-18T11:25:41.587Z,14.80
2023-05-18T11:28:11.567Z,14.90
2023-05-18T11:30:51.816Z,14.80
2023-05-18T11:33:24.792Z,14.90
2023-05-18T11:36:02.288Z,14.80
2023-05-18T11:38:52.292Z,14.90
2023-05-18T11:41:39.285Z,14.80
2023-05-18T11:44:18.235Z,14.80
2023-05-18T11:46:54.768Z,14.50
2023-05-18T11:49:26.162Z,14.70
2023-05-18T11:52:02.216Z,14.90
2023-05-18T11:54:34.861Z,15.00
2023-05-18T11:57:04.671Z,15.10
2023-05-18T11:59:34.462Z,15.00
2023-05-18T12:02:04.198Z,15.10
2023-05-18T12:04:33.745Z,15.10
2023-05-18T12:07:06.650Z,14.90
2023-05-18T12:09:35.188Z,14.90
2023-05-18T12:12:05.069Z,14.90
2023-05-18T12:14:36.051Z,14.80
2023-05-18T12:17:05.137Z,14.90
2023-05-18T12:19:39.341Z,14.90
2023-05-18T12:22:10.186Z,15.20
2023-05-18T12:24:39.599Z,15.10
2023-05-18T12:27:10.640Z,15.20
2023-05-18T12:29:40.288Z,15.10
2023-05-18T12:32:10.287Z,15.10
2023-05-18T12:34:40.077Z,15.10
2023-05-18T12:37:08.917Z,15.10
2023-05-18T12:39:37.794Z,14.80
2023-05-18T12:42:15.539Z,14.60
2023-05-18T12:44:45.726Z,14.80
2023-05-18T12:47:14.466Z,15.00
2023-05-18T12:49:44.681Z,15.10
2023-05-18T12:52:14.242Z,15.10
2023-05-18T12:54:55.608Z,14.90
2023-05-18T12:57:30.552Z,15.00
2023-05-18T12:59:59.382Z,15.20
2023-05-18T13:02:36.160Z,15.20
2023-05-18T13:05:09.706Z,15.00
2023-05-18T13:07:40.056Z,15.20
2023-05-18T13:10:10.458Z,15.30
2023-05-18T13:12:46.215Z,15.30
2023-05-18T13:15:16.552Z,15.50
2023-05-18T13:18:07.009Z,15.60
2023-05-18T13:20:37.710Z,15.50
2023-05-18T13:23:08.144Z,15.60
2023-05-18T13:25:36.384Z,15.60
2023-05-18T13:28:06.544Z,15.20
2023-05-18T13:30:36.272Z,15.20
2023-05-18T13:33:04.790Z,15.40
2023-05-18T13:35:33.262Z,15.50
2023-05-18T13:38:01.774Z,15.40
2023-05-18T13:40:30.091Z,15.30
2023-05-18T13:42:58.270Z,15.40
2023-05-18T13:45:27.904Z,15.30
2023-05-18T13:47:56.918Z,15.10
2023-05-18T13:50:26.270Z,15.30
2023-05-18T13:52:55.113Z,15.40
2023-05-18T13:55:23.678Z,15.30
2023-05-18T13:57:51.883Z,15.30
2023-05-18T14:00:21.513Z,15.20
2023-05-18T14:02:51.349Z,14.90
2023-05-18T14:05:19.644Z,15.00
2023-05-18T14:07:47.833Z,15.10
2023-05-18T14:10:16.036Z,15.00
2023-05-18T14:12:44.225Z,14.90
2023-05-18T14:15:14.042Z,14.70
2023-05-18T14:17:43.177Z,14.60
2023-05-18T14:20:14.163Z,14.80
2023-05-18T14:22:42.592Z,14.70
2023-05-18T14:25:11.218Z,14.80
2023-05-18T14:27:39.469Z,14.90
2023-05-18T14:30:08.951Z,14.80
2023-05-18T14:32:37.340Z,15.10
2023-05-18T14:35:06.244Z,15.20
2023-05-18T14:37:35.840Z,15.30
2023-05-18T14:40:05.912Z,15.00
2023-05-18T14:42:36.466Z,15.10
2023-05-18T14:45:05.511Z,15.30
2023-05-18T14:47:33.768Z,15.40
2023-05-18T14:50:01.931Z,15.40
2023-05-18T14:52:30.114Z,15.10
2023-05-18T14:54:59.685Z,15.10
2023-05-18T14:57:27.966Z,15.10
2023-05-18T14:59:56.299Z,14.90
2023-05-18T15:02:24.619Z,14.80
2023-05-18T15:04:52.934Z,14.80
2023-05-18T15:07:21.214Z,14.80
2023-05-18T15:09:49.413Z,14.70
2023-05-18T15:12:19.746Z,14.70
2023-05-18T15:14:47.965Z,14.60
2023-05-18T15:17:17.950Z,14.70
2023-05-18T15:19:47.125Z,14.60
2023-05-18T15:22:15.326Z,14.60
2023-05-18T15:24:43.748Z,14.50
2023-05-18T15:27:12.192Z,14.50
2023-05-18T15:29:41.828Z,14.40
2023-05-18T15:32:10.051Z,14.40
2023-05-18T15:34:38.287Z,14.30
2023-05-18T15:37:06.675Z,14.40
2023-05-18T15:39:35.137Z,14.30
2023-05-18T15:42:04.849Z,14.30
2023-05-18T15:44:33.032Z,14.30
2023-05-18T15:47:02.984Z,14.30
2023-05-18T15:49:31.173Z,14.40
2023-05-18T15:51:59.383Z,14.40
2023-05-18T15:54:27.635Z,14.40
2023-05-18T15:56:55.827Z,14.40
2023-05-18T15:59:24.208Z,14.40
2023-05-18T16:01:52.478Z,14.30
2023-05-18T16:04:22.150Z,14.40
2023-05-18T16:06:50.333Z,14.40
2023-05-18T16:09:18.685Z,14.40
2023-05-18T16:11:46.845Z,14.40
2023-05-18T16:14:15.010Z,14.40
2023-05-18T16:16:43.297Z,14.40
2023-05-18T16:19:11.551Z,14.30
2023-05-18T16:21:41.147Z,14.30
2023-05-18T16:24:09.778Z,14.30
2023-05-18T16:26:40.055Z,14.30
2023-05-18T16:29:09.051Z,14.20
2023-05-18T16:31:37.804Z,14.20
2023-05-18T16:34:05.993Z,14.20
2023-05-18T16:36:34.501Z,14.20
2023-05-18T16:39:04.125Z,14.20
2023-05-18T16:41:32.316Z,14.10
2023-05-18T16:44:00.492Z,14.10
2023-05-18T16:46:29.208Z,14.00
2023-05-18T16:48:57.508Z,14.00
2023-05-18T16:51:27.295Z,13.90
2023-05-18T16:53:55.861Z,13.90
2023-05-18T16:56:25.605Z,13.90
2023-05-18T16:58:53.929Z,13.90
2023-05-18T17:01:28.061Z,13.90
2023-05-18T17:03:57.278Z,13.90
2023-05-18T17:06:25.986Z,13.90
2023-05-18T17:08:57.943Z,13.80
2023-05-18T17:11:28.298Z,13.80
2023-05-18T17:13:57.837Z,13.80
2023-05-18T17:16:27.212Z,13.70
2023-05-18T17:18:56.311Z,13.80
2023-05-18T17:21:26.707Z,13.70
2023-05-18T17:23:54.977Z,13.70
2023-05-18T17:26:25.425Z,13.70
2023-05-18T17:28:55.064Z,13.70
2023-05-18T17:31:23.513Z,13.70
2023-05-18T17:33:51.796Z,13.60
2023-05-18T17:36:20.015Z,13.60
2023-05-18T17:38:48.234Z,13.60
2023-05-18T17:41:16.419Z,13.50
2023-05-18T17:43:44.623Z,13.50
2023-05-18T17:46:14.219Z,13.40
2023-05-18T17:48:42.418Z,13.50
2023-05-18T17:51:10.659Z,13.40
2023-05-18T17:53:42.101Z,13.40
2023-05-18T17:56:11.260Z,13.30
2023-05-18T17:58:39.647Z,13.30
2023-05-18T18:01:08.814Z,13.20
2023-05-18T18:03:38.531Z,13.20
2023-05-18T18:06:07.564Z,13.10
2023-05-18T18:08:36.717Z,13.10
2023-05-18T18:11:07.621Z,13.10
2023-05-18T18:13:37.645Z,13.10
2023-05-18T18:16:06.543Z,13.10
2023-05-18T18:18:36.579Z,13.00
2023-05-18T18:21:07.421Z,13.10
2023-05-18T18:23:35.753Z,13.20
2023-05-18T18:26:04.624Z,13.10
2023-05-18T18:28:33.411Z,13.10
2023-05-18T18:31:02.226Z,13.00
2023-05-18T18:33:30.590Z,13.00
2023-05-18T18:35:59.177Z,13.00
2023-05-18T18:38:29.062Z,12.90
2023-05-18T18:41:01.576Z,12.90
2023-05-18T18:43:30.148Z,12.90
2023-05-18T18:45:58.438Z,12.90
2023-05-18T18:48:27.788Z,12.90
2023-05-18T18:50:56.172Z,12.80
2023-05-18T18:53:24.377Z,12.80
2023-05-18T18:55:54.290Z,12.70
2023-05-18T18:58:24.232Z,12.80
2023-05-18T19:00:52.559Z,12.70
2023-05-18T19:03:21.866Z,12.70
2023-05-18T19:05:51.216Z,12.70
2023-05-18T19:08:19.902Z,12.70
2023-05-18T19:10:48.095Z,12.70
2023-05-18T19:13:21.075Z,12.70
2023-05-18T19:15:49.427Z,12.60
2023-05-18T19:18:17.755Z,12.60
2023-05-18T19:20:46.030Z,12.60
2023-05-18T19:23:14.390Z,12.60
2023-05-18T19:25:42.784Z,12.60
2023-05-18T19:28:11.042Z,12.60
2023-05-18T19:30:40.684Z,12.60
2023-05-18T19:33:09.214Z,12.70
2023-05-18T19:35:37.445Z,12.60
2023-05-18T19:38:05.640Z,12.60
2023-05-18T19:40:33.852Z,12.60
2023-05-18T19:43:02.124Z,12.60
2023-05-18T19:45:30.691Z,12.60
2023-05-18T19:48:00.975Z,12.50
2023-05-18T19:50:29.366Z,12.60
2023-05-18T19:52:57.627Z,12.50
2023-05-18T19:55:25.942Z,12.40
2023-05-18T19:57:54.712Z,12.50
2023-05-18T20:00:22.959Z,12.40
2023-05-18T20:02:51.192Z,12.40
2023-05-18T20:05:20.818Z,12.40
2023-05-18T20:07:49.319Z,12.40
2023-05-18T20:10:18.483Z,12.40
2023-05-18T20:12:46.908Z,12.40
2023-05-18T20:15:15.345Z,12.40
2023-05-18T20:17:43.844Z,12.40
2023-05-18T20:20:12.720Z,12.50
2023-05-18T20:22:42.728Z,12.40
2023-05-18T20:25:12.129Z,12.40
2023-05-18T20:27:40.391Z,12.40
2023-05-18T20:30:09.705Z,12.10
2023-05-18T20:32:37.935Z,12.40
2023-05-18T20:35:09.092Z,12.40
2023-05-18T20:37:37.698Z,12.40
2023-05-18T20:40:10.041Z,12.40
2023-05-18T20:42:40.740Z,12.40
2023-05-18T20:45:10.748Z,12.40
2023-05-18T20:47:42.721Z,12.40
2023-05-18T20:50:11.476Z,12.40
2023-05-18T20:52:40.083Z,12.40
2023-05-18T20:55:13.963Z,12.40
2023-05-18T20:57:44.725Z,12.40
2023-05-18T21:00:14.108Z,12.40
2023-05-18T21:02:44.971Z,12.40
2023-05-18T21:05:14.108Z,12.50
2023-05-18T21:07:42.410Z,12.50
2023-05-18T21:10:12.731Z,12.50
2023-05-18T21:12:40.889Z,12.50
2023-05-18T21:15:09.906Z,12.40
2023-05-18T21:17:38.103Z,12.40
2023-05-18T21:20:09.283Z,12.40
2023-05-18T21:22:37.530Z,12.40
2023-05-18T21:25:06.309Z,12.40
2023-05-18T21:27:37.107Z,12.40
2023-05-18T21:30:06.195Z,12.40
2023-05-18T21:32:34.664Z,12.30
2023-05-18T21:35:03.046Z,12.30
2023-05-18T21:37:31.249Z,12.30
2023-05-18T21:39:59.386Z,12.30
2023-05-18T21:42:27.607Z,12.30
2023-05-18T21:44:57.118Z,12.30
2023-05-18T21:47:25.316Z,12.30
2023-05-18T21:49:53.491Z,12.30
2023-05-18T21:52:21.649Z,12.30
2023-05-18T21:54:49.805Z,12.30
2023-05-18T21:57:17.981Z,12.20
2023-05-18T21:59:46.165Z,12.20
2023-05-18T22:02:15.705Z,12.20
2023-05-18T22:04:43.899Z,12.20
2023-05-18T22:07:13.856Z,12.20
2023-05-18T22:09:42.009Z,12.10
2023-05-18T22:12:10.242Z,12.10
2023-05-18T22:14:38.434Z,12.10
2023-05-18T22:17:06.873Z,12.10
2023-05-18T22:19:36.639Z,12.10
2023-05-18T22:22:05.807Z,12.10
2023-05-18T22:24:34.158Z,12.00
2023-05-18T22:27:02.942Z,12.00
2023-05-18T22:29:31.124Z,12.00
2023-05-18T22:31:59.408Z,11.90
2023-05-18T22:34:27.616Z,12.00
2023-05-18T22:36:57.153Z,11.90
2023-05-18T22:39:25.355Z,11.90
2023-05-18T22:41:53.600Z,11.90
2023-05-18T22:44:21.763Z,11.90
2023-05-18T22:46:49.946Z,11.90
2023-05-18T22:49:18.249Z,11.80
2023-05-18T22:51:46.875Z,11.80
2023-05-18T22:54:16.452Z,11.80
2023-05-18T22:56:44.592Z,11.80
2023-05-18T22:59:12.790Z,11.70
2023-05-18T23:01:41.080Z,11.60
2023-05-18T23:04:09.273Z,11.60
2023-05-18T23:06:37.441Z,11.60
2023-05-18T23:09:06.105Z,11.60
2023-05-18T23:11:36.031Z,11.50
2023-05-18T23:14:04.209Z,11.50
2023-05-18T23:16:32.591Z,11.50
2023-05-18T23:19:01.785Z,11.40
2023-05-18T23:21:31.068Z,11.50
2023-05-18T23:23:59.823Z,11.40
2023-05-18T23:26:28.272Z,11.40
2023-05-18T23:28:57.886Z,11.40
2023-05-18T23:31:26.095Z,11.40
2023-05-18T23:33:54.901Z,11.30
2023-05-18T23:36:27.143Z,11.30
2023-05-18T23:38:59.013Z,11.30
2023-05-18T23:41:28.184Z,11.30
2023-05-18T23:43:58.831Z,11.30
2023-05-18T23:46:27.731Z,11.20
2023-05-18T23:48:57.882Z,11.20
2023-05-18T23:51:27.687Z,11.20
2023-05-18T23:53:57.030Z,11.20
2023-05-18T23:56:26.000Z,11.20
2023-05-18T23:58:54.637Z,11.10
